createdAt,value
2023-05-06T00:02:44.655Z,98159.81
2023-05-06T00:05:50.710Z,98151.19
2023-05-06T00:08:57.480Z,98149.97
2023-05-06T00:12:03.398Z,98153.28
2023-05-06T00:15:14.017Z,98156.88
2023-05-06T00:18:28.766Z,98150.91
2023-05-06T00:21:41.957Z,98142.38
2023-05-06T00:24:48.072Z,98142.34
2023-05-06T00:28:01.215Z,98127.66
2023-05-06T00:31:10.852Z,98122.59
2023-05-06T00:34:17.594Z,98126.44
2023-05-06T00:37:23.483Z,98122.44
2023-05-06T00:40:30.340Z,98123.16
2023-05-06T00:43:36.329Z,98117.34
2023-05-06T00:46:46.581Z,98116.41
2023-05-06T00:50:00.196Z,98127.88
2023-05-06T00:53:24.685Z,98118.28
2023-05-06T00:56:31.514Z,98126.56
2023-05-06T00:59:40.057Z,98122.91
2023-05-06T01:02:49.701Z,98125.56
2023-05-06T01:06:22.129Z,98124.41
2023-05-06T01:09:41.919Z,98125.75
2023-05-06T01:13:01.289Z,98121.66
2023-05-06T01:16:12.534Z,98116.34
2023-05-06T01:19:46.892Z,98124.66
2023-05-06T01:22:59.249Z,98118.03
2023-05-06T01:26:18.092Z,98109.09
2023-05-06T01:29:24.889Z,98120.91
2023-05-06T01:32:47.827Z,98114.13
2023-05-06T01:36:23.996Z,98113.63
2023-05-06T01:39:52.220Z,98113.00
2023-05-06T01:43:08.037Z,98119.97
2023-05-06T01:46:21.025Z,98115.34
2023-05-06T01:49:30.609Z,98114.81
2023-05-06T01:52:36.570Z,98111.66
2023-05-06T01:55:43.409Z,98118.00
2023-05-06T01:58:51.925Z,98106.38
2023-05-06T02:01:59.782Z,98109.88
2023-05-06T02:05:08.401Z,98103.53
2023-05-06T02:08:22.773Z,98100.25
2023-05-06T02:11:29.448Z,98101.94
2023-05-06T02:14:46.747Z,98095.28
2023-05-06T02:17:52.937Z,98088.19
2023-05-06T02:21:01.833Z,98084.53
2023-05-06T02:24:08.788Z,98090.38
2023-05-06T02:27:16.340Z,98082.91
2023-05-06T02:30:24.958Z,98088.41
2023-05-06T02:33:31.610Z,98086.22
2023-05-06T02:36:37.753Z,98093.84
2023-05-06T02:39:46.324Z,98091.03
2023-05-06T02:42:52.515Z,98085.75
2023-05-06T02:46:01.972Z,98079.44
2023-05-06T02:49:12.648Z,98081.13
2023-05-06T02:52:21.853Z,98083.28
2023-05-06T02:55:28.021Z,98082.75
2023-05-06T02:58:36.242Z,98081.97
2023-05-06T03:01:51.016Z,98091.72
2023-05-06T03:04:57.858Z,98089.06
2023-05-06T03:08:03.963Z,98094.38
2023-05-06T03:11:14.404Z,98094.88
2023-05-06T03:14:20.591Z,98083.75
2023-05-06T03:17:30.072Z,98082.09
2023-05-06T03:20:38.864Z,98074.47
2023-05-06T03:23:47.436Z,98078.44
2023-05-06T03:26:54.524Z,98074.78
2023-05-06T03:30:08.032Z,98086.41
2023-05-06T03:33:17.888Z,98077.59
2023-05-06T03:36:25.560Z,98075.59
2023-05-06T03:39:33.291Z,98073.63
2023-05-06T03:42:41.228Z,98074.44
2023-05-06T03:45:48.080Z,98082.41
2023-05-06T03:48:58.618Z,98082.75
2023-05-06T03:52:05.134Z,98089.41
2023-05-06T03:55:19.104Z,98085.22
2023-05-06T03:58:25.562Z,98088.34
2023-05-06T04:01:32.632Z,98088.84
2023-05-06T04:04:43.756Z,98088.34
2023-05-06T04:07:51.973Z,98082.19
2023-05-06T04:10:58.541Z,98089.97
2023-05-06T04:14:08.355Z,98087.47
2023-05-06T04:17:15.770Z,98089.78
2023-05-06T04:20:26.626Z,98087.78
2023-05-06T04:23:33.149Z,98087.59
2023-05-06T04:26:41.101Z,98090.13
2023-05-06T04:29:47.476Z,98082.97
2023-05-06T04:32:56.054Z,98083.16
2023-05-06T04:36:05.014Z,98073.97
2023-05-06T04:39:13.392Z,98081.50
2023-05-06T04:42:20.376Z,98086.97
2023-05-06T04:45:40.897Z,98091.34
2023-05-06T04:48:47.112Z,98087.47
2023-05-06T04:52:05.143Z,98085.44
2023-05-06T04:55:13.394Z,98079.88
2023-05-06T04:58:26.414Z,98078.84
2023-05-06T05:01:33.732Z,98075.88
2023-05-06T05:04:47.519Z,98070.03
2023-05-06T05:08:09.062Z,98077.72
2023-05-06T05:11:36.123Z,98070.97
2023-05-06T05:14:43.013Z,98076.44
2023-05-06T05:17:52.725Z,98071.47
2023-05-06T05:21:11.987Z,98072.13
2023-05-06T05:24:22.091Z,98057.34
2023-05-06T05:27:28.146Z,98057.81
2023-05-06T05:30:37.304Z,98057.00
2023-05-06T05:33:44.632Z,98056.75
2023-05-06T05:36:56.265Z,98054.53
2023-05-06T05:40:08.328Z,98052.44
2023-05-06T05:43:18.053Z,98047.91
2023-05-06T05:46:24.305Z,98043.41
2023-05-06T05:49:32.079Z,98043.91
2023-05-06T05:52:38.162Z,98042.72
2023-05-06T05:55:47.990Z,98040.66
2023-05-06T05:58:55.989Z,98032.88
2023-05-06T06:02:10.585Z,98038.97
2023-05-06T06:05:17.009Z,98037.41
2023-05-06T06:08:24.345Z,98040.16
2023-05-06T06:11:34.277Z,98026.97
2023-05-06T06:14:42.136Z,98024.50
2023-05-06T06:17:48.764Z,98028.09
2023-05-06T06:20:57.381Z,98032.09
2023-05-06T06:24:03.630Z,98031.38
2023-05-06T06:27:21.947Z,98025.34
2023-05-06T06:30:28.827Z,98026.63
2023-05-06T06:33:38.418Z,98027.25
2023-05-06T06:36:46.415Z,98018.41
2023-05-06T06:39:53.309Z,98013.22
2023-05-06T06:43:08.140Z,98002.13
2023-05-06T06:46:36.618Z,98004.78
2023-05-06T06:49:42.752Z,97998.22
2023-05-06T06:52:49.724Z,98002.28
2023-05-06T06:55:56.914Z,98001.50
2023-05-06T06:59:06.351Z,97992.84
2023-05-06T07:02:12.378Z,97989.56
2023-05-06T07:05:19.614Z,97989.38
2023-05-06T07:08:25.740Z,97987.28
2023-05-06T07:11:32.627Z,97977.63
2023-05-06T07:14:41.870Z,97979.28
2023-05-06T07:17:48.933Z,97974.94
2023-05-06T07:20:55.017Z,97970.97
2023-05-06T07:24:01.864Z,97974.66
2023-05-06T07:27:07.789Z,97969.97
2023-05-06T07:30:21.685Z,97975.56
2023-05-06T07:33:29.297Z,97972.63
2023-05-06T07:36:47.263Z,97961.75
2023-05-06T07:39:53.521Z,97968.75
2023-05-06T07:43:00.376Z,97964.63
2023-05-06T07:46:09.261Z,97965.47
2023-05-06T07:49:25.739Z,97966.09
2023-05-06T07:52:31.831Z,97959.28
2023-05-06T07:55:38.948Z,97953.91
2023-05-06T07:58:44.939Z,97960.03
2023-05-06T08:01:54.512Z,97960.44
2023-05-06T08:05:00.672Z,97957.00
2023-05-06T08:08:08.420Z,97958.66
2023-05-06T08:11:14.647Z,97959.50
2023-05-06T08:14:21.756Z,97947.34
2023-05-06T08:17:33.043Z,97950.03
2023-05-06T08:20:42.245Z,97954.56
2023-05-06T08:23:48.272Z,97960.34
2023-05-06T08:26:55.255Z,97955.78
2023-05-06T08:30:01.391Z,97952.09
2023-05-06T08:33:11.148Z,97953.75
2023-05-06T08:36:17.045Z,97945.09
2023-05-06T08:39:24.088Z,97947.13
2023-05-06T08:42:31.458Z,97940.50
2023-05-06T08:45:40.652Z,97933.94
2023-05-06T08:48:49.393Z,97932.91
2023-05-06T08:51:57.148Z,97929.94
2023-05-06T08:55:08.432Z,97928.72
2023-05-06T08:58:20.378Z,97928.00
2023-05-06T09:01:26.914Z,97930.03
2023-05-06T09:04:36.732Z,97919.47
2023-05-06T09:07:42.897Z,97920.69
2023-05-06T09:10:51.094Z,97928.56
2023-05-06T09:14:14.198Z,97932.91
2023-05-06T09:17:28.479Z,97943.03
2023-05-06T09:20:45.126Z,97950.44
2023-05-06T09:23:52.133Z,97949.00
2023-05-06T09:27:01.895Z,97936.44
2023-05-06T09:30:13.181Z,97939.75
2023-05-06T09:33:19.702Z,97951.19
2023-05-06T09:36:31.832Z,97943.16
2023-05-06T09:39:37.990Z,97946.63
2023-05-06T09:42:47.877Z,97956.84
2023-05-06T09:45:56.568Z,97966.56
2023-05-06T09:49:04.367Z,97959.47
2023-05-06T09:52:16.440Z,97988.16
2023-05-06T09:55:27.058Z,97982.41
2023-05-06T09:58:36.096Z,97982.34
2023-05-06T10:01:44.035Z,97981.47
2023-05-06T10:05:11.569Z,97969.31
2023-05-06T10:08:23.167Z,97966.19
2023-05-06T10:11:32.409Z,97957.22
2023-05-06T10:14:39.714Z,97949.22
2023-05-06T10:17:49.261Z,97949.56
2023-05-06T10:20:57.262Z,97944.28
2023-05-06T10:24:14.045Z,97941.91
2023-05-06T10:27:27.628Z,97940.38
2023-05-06T10:30:44.074Z,97940.78
2023-05-06T10:33:56.720Z,97938.59
2023-05-06T10:37:04.976Z,97943.28
2023-05-06T10:40:19.533Z,97952.69
2023-05-06T10:43:32.224Z,97959.03
2023-05-06T10:47:03.689Z,97928.44
2023-05-06T10:50:26.023Z,97923.41
2023-05-06T10:54:06.128Z,97926.28
2023-05-06T10:57:15.183Z,97920.19
2023-05-06T11:00:22.749Z,97917.66
2023-05-06T11:03:28.971Z,97901.91
2023-05-06T11:06:43.064Z,97910.94
2023-05-06T11:10:00.593Z,97911.38
2023-05-06T11:13:28.027Z,97907.81
2023-05-06T11:16:52.070Z,97917.22
2023-05-06T11:20:23.930Z,97907.16
2023-05-06T11:24:13.770Z,97914.03
2023-05-06T11:27:26.390Z,97917.69
2023-05-06T11:30:34.962Z,97910.81
2023-05-06T11:33:50.642Z,97916.69
2023-05-06T11:37:05.292Z,97911.84
2023-05-06T11:40:18.930Z,97915.75
2023-05-06T11:43:24.883Z,97917.09
2023-05-06T11:46:36.913Z,97925.63
2023-05-06T11:49:45.787Z,97921.28
2023-05-06T11:52:52.651Z,97933.41
2023-05-06T11:55:58.796Z,97942.50
2023-05-06T11:59:05.596Z,97948.78
2023-05-06T12:02:18.098Z,97946.09
2023-05-06T12:05:29.701Z,97938.38
2023-05-06T12:08:39.064Z,97952.03
2023-05-06T12:11:48.115Z,97955.81
2023-05-06T12:14:56.964Z,97943.88
2023-05-06T12:18:08.794Z,97943.16
2023-05-06T12:21:14.967Z,97956.00
2023-05-06T12:24:31.947Z,97944.34
2023-05-06T12:27:39.887Z,97930.13
2023-05-06T12:30:47.813Z,97939.56
2023-05-06T12:34:01.063Z,97953.25
2023-05-06T12:37:11.738Z,97956.38
2023-05-06T12:40:22.990Z,97953.88
2023-05-06T12:43:34.101Z,97942.97
2023-05-06T12:46:53.954Z,97945.91
2023-05-06T12:50:03.415Z,97944.81
2023-05-06T12:53:13.602Z,97947.91
2023-05-06T12:56:20.701Z,97949.75
2023-05-06T12:59:29.312Z,97952.59
2023-05-06T13:02:38.236Z,97944.69
2023-05-06T13:05:52.139Z,97948.97
2023-05-06T13:08:59.402Z,97952.56
2023-05-06T13:12:05.870Z,97948.69
2023-05-06T13:15:14.062Z,97956.22
2023-05-06T13:18:20.112Z,97950.97
2023-05-06T13:21:31.953Z,97957.69
2023-05-06T13:24:37.912Z,97952.47
2023-05-06T13:27:44.768Z,97952.56
2023-05-06T13:30:50.811Z,97958.78
2023-05-06T13:33:58.149Z,97960.88
2023-05-06T13:37:08.142Z,97966.06
2023-05-06T13:40:16.671Z,97954.34
2023-05-06T13:43:25.051Z,97957.53
2023-05-06T13:46:34.552Z,97946.00
2023-05-06T13:49:42.395Z,97945.09
2023-05-06T13:52:51.802Z,97955.38
2023-05-06T13:55:57.837Z,97947.16
2023-05-06T13:59:08.421Z,97946.72
2023-05-06T14:02:16.698Z,97941.78
2023-05-06T14:05:23.620Z,97942.34
2023-05-06T14:08:33.263Z,97942.94
2023-05-06T14:11:40.204Z,97942.47
2023-05-06T14:14:46.160Z,97945.13
2023-05-06T14:17:53.167Z,97940.28
2023-05-06T14:20:59.434Z,97945.25
2023-05-06T14:24:10.557Z,97937.81
2023-05-06T14:27:21.741Z,97936.97
2023-05-06T14:30:28.832Z,97938.94
2023-05-06T14:33:34.945Z,97922.06
2023-05-06T14:36:41.666Z,97932.31
2023-05-06T14:39:50.276Z,97918.47
2023-05-06T14:42:57.033Z,97926.00
2023-05-06T14:46:03.161Z,97911.84
2023-05-06T14:49:09.926Z,97921.97
2023-05-06T14:52:16.866Z,97929.84
2023-05-06T14:55:26.443Z,97934.78
2023-05-06T14:58:32.353Z,97934.16
2023-05-06T15:01:39.178Z,97929.59
2023-05-06T15:04:46.244Z,97938.22
2023-05-06T15:07:53.093Z,97939.31
2023-05-06T15:11:05.094Z,97943.25
2023-05-06T15:14:11.904Z,97946.66
2023-05-06T15:17:18.248Z,97947.81
2023-05-06T15:20:24.934Z,97946.31
2023-05-06T15:23:37.311Z,97950.66
2023-05-06T15:26:50.537Z,97949.41
2023-05-06T15:30:08.692Z,97950.38
2023-05-06T15:33:18.148Z,97946.44
2023-05-06T15:36:24.046Z,97947.00
2023-05-06T15:39:31.043Z,97949.53
2023-05-06T15:42:41.665Z,97949.38
2023-05-06T15:45:50.834Z,97951.16
2023-05-06T15:49:22.448Z,97958.19
2023-05-06T15:52:28.929Z,97951.59
2023-05-06T15:55:43.728Z,97939.63
2023-05-06T15:58:53.738Z,97941.50
2023-05-06T16:05:18.347Z,97949.09
2023-05-06T16:08:31.920Z,97951.16
2023-05-06T16:11:38.608Z,97959.47
2023-05-06T16:14:47.922Z,97960.09
2023-05-06T16:17:54.719Z,97962.97
2023-05-06T16:21:01.588Z,97959.66
2023-05-06T16:24:11.718Z,97954.50
2023-05-06T16:27:20.515Z,97952.06
2023-05-06T16:30:31.232Z,97958.88
2023-05-06T16:33:37.478Z,97965.69
2023-05-06T16:36:44.652Z,97969.19
2023-05-06T16:39:56.092Z,97967.53
2023-05-06T16:43:03.019Z,97962.38
2023-05-06T16:46:11.580Z,97967.31
2023-05-06T16:49:20.636Z,97963.41
2023-05-06T16:52:26.841Z,97968.97
2023-05-06T16:55:33.738Z,97976.81
2023-05-06T16:58:39.760Z,97977.81
2023-05-06T17:01:49.193Z,97984.22
2023-05-06T17:04:55.341Z,97974.13
2023-05-06T17:08:03.966Z,97969.38
2023-05-06T17:11:11.768Z,97967.31
2023-05-06T17:14:20.165Z,97968.56
2023-05-06T17:17:29.105Z,97966.50
2023-05-06T17:20:51.404Z,97974.13
2023-05-06T17:24:01.777Z,97969.78
2023-05-06T17:27:08.712Z,97967.31
2023-05-06T17:30:15.556Z,97964.34
2023-05-06T17:33:25.186Z,97964.34
2023-05-06T17:36:31.537Z,97967.44
2023-05-06T17:39:38.776Z,97973.78
2023-05-06T17:42:46.418Z,97964.72
2023-05-06T17:45:53.360Z,97970.47
2023-05-06T17:49:02.080Z,97968.00
2023-05-06T17:52:11.784Z,97970.03
2023-05-06T17:55:18.090Z,97961.38
2023-05-06T17:58:24.968Z,97975.50
2023-05-06T18:01:35.653Z,97974.03
2023-05-06T18:04:47.721Z,97978.75
2023-05-06T18:07:53.717Z,97982.44
2023-05-06T18:11:00.766Z,97984.22
2023-05-06T18:14:15.150Z,97987.00
2023-05-06T18:17:22.150Z,97996.19
2023-05-06T18:20:30.925Z,98001.56
2023-05-06T18:23:37.758Z,97994.56
2023-05-06T18:26:45.832Z,98007.28
2023-05-06T18:29:53.237Z,98006.00
2023-05-06T18:32:59.331Z,98017.03
2023-05-06T18:36:17.676Z,98023.50
2023-05-06T18:39:26.989Z,98013.75
2023-05-06T18:42:35.306Z,98019.06
2023-05-06T18:45:41.701Z,98024.47
2023-05-06T18:48:48.666Z,98029.41
2023-05-06T18:51:57.751Z,98027.13
2023-05-06T18:55:04.966Z,98026.59
2023-05-06T18:58:14.334Z,98043.75
2023-05-06T19:01:40.441Z,98043.53
2023-05-06T19:04:47.886Z,98044.75
2023-05-06T19:08:02.077Z,98045.56
2023-05-06T19:11:19.449Z,98053.31
2023-05-06T19:14:26.339Z,98050.41
2023-05-06T19:17:32.286Z,98055.47
2023-05-06T19:20:39.604Z,98056.00
2023-05-06T19:23:49.517Z,98062.53
2023-05-06T19:26:56.343Z,98056.44
2023-05-06T19:30:17.496Z,98058.94
2023-05-06T19:33:24.530Z,98060.69
2023-05-06T19:36:50.445Z,98060.97
2023-05-06T19:40:04.156Z,98062.59
2023-05-06T19:43:10.121Z,98064.72
2023-05-06T19:46:20.326Z,98059.31
2023-05-06T19:49:26.701Z,98061.41
2023-05-06T19:52:34.904Z,98064.66
2023-05-06T19:55:48.722Z,98066.66
2023-05-06T19:58:58.069Z,98065.09
2023-05-06T20:02:10.530Z,98078.34
2023-05-06T20:05:17.591Z,98072.44
2023-05-06T20:08:24.920Z,98072.34
2023-05-06T20:11:34.991Z,98089.53
2023-05-06T20:14:54.402Z,98081.19
2023-05-06T20:18:01.819Z,98078.53
2023-05-06T20:21:07.804Z,98080.81
2023-05-06T20:24:14.732Z,98071.53
2023-05-06T20:27:23.776Z,98081.81
2023-05-06T20:30:30.841Z,98086.34
2023-05-06T20:33:37.024Z,98086.19
2023-05-06T20:36:44.924Z,98087.06
2023-05-06T20:39:50.977Z,98092.44
2023-05-06T20:43:00.444Z,98082.59
2023-05-06T20:46:07.136Z,98083.69
2023-05-06T20:49:14.129Z,98089.09
2023-05-06T20:52:21.846Z,98087.00
2023-05-06T20:55:30.743Z,98091.97
2023-05-06T20:58:39.302Z,98101.41
2023-05-06T21:01:46.226Z,98103.53
2023-05-06T21:04:52.522Z,98099.22
2023-05-06T21:07:59.371Z,98095.91
2023-05-06T21:11:15.490Z,98105.94
2023-05-06T21:14:25.568Z,98114.56
2023-05-06T21:17:32.266Z,98112.56
2023-05-06T21:20:39.292Z,98113.53
2023-05-06T21:23:45.291Z,98116.41
2023-05-06T21:26:52.208Z,98117.59
2023-05-06T21:30:03.916Z,98118.31
2023-05-06T21:33:11.530Z,98114.28
2023-05-06T21:36:17.755Z,98117.03
2023-05-06T21:39:32.355Z,98119.69
2023-05-06T21:42:38.289Z,98117.59
2023-05-06T21:45:48.364Z,98131.34
2023-05-06T21:48:54.278Z,98125.31
2023-05-06T21:52:01.074Z,98134.31
2023-05-06T21:55:08.725Z,98124.75
2023-05-06T21:58:16.505Z,98121.47
2023-05-06T22:01:26.452Z,98126.59
2023-05-06T22:04:36.526Z,98127.25
2023-05-06T22:07:42.500Z,98127.41
2023-05-06T22:10:49.446Z,98117.88
2023-05-06T22:13:55.422Z,98121.72
2023-05-06T22:17:05.212Z,98122.69
2023-05-06T22:20:16.379Z,98130.50
2023-05-06T22:23:24.333Z,98121.94
2023-05-06T22:26:36.508Z,98121.56
2023-05-06T22:29:43.450Z,98121.72
2023-05-06T22:32:52.186Z,98122.09
2023-05-06T22:35:59.162Z,98121.91
2023-05-06T22:39:12.449Z,98120.19
2023-05-06T22:42:19.227Z,98127.19
2023-05-06T22:45:33.533Z,98121.38
2023-05-06T22:48:45.031Z,98130.97
2023-05-06T22:51:51.293Z,98127.66
2023-05-06T22:54:58.073Z,98125.81
2023-05-06T22:58:04.109Z,98127.66
2023-05-06T23:01:11.074Z,98129.13
2023-05-06T23:04:19.678Z,98121.66
2023-05-06T23:07:26.719Z,98127.78
2023-05-06T23:10:32.722Z,98131.44
2023-05-06T23:13:39.428Z,98128.41
2023-05-06T23:16:49.925Z,98135.50
2023-05-06T23:20:06.244Z,98133.88
2023-05-06T23:23:18.216Z,98129.63
2023-05-06T23:26:25.145Z,98137.53
2023-05-06T23:29:31.222Z,98135.81
2023-05-06T23:32:38.186Z,98141.25
2023-05-06T23:35:47.933Z,98142.47
2023-05-06T23:38:54.686Z,98138.06
2023-05-06T23:42:00.952Z,98143.25
2023-05-06T23:45:09.339Z,98141.94
2023-05-06T23:48:16.522Z,98136.16
2023-05-06T23:51:26.866Z,98139.00
2023-05-06T23:54:33.139Z,98132.16
2023-05-06T23:57:40.115Z,98136.75
